Time;durP1;ratioP1;P1;durP2;ratioP2;P2;SDS_P1;SDS_P2;PMS_P1;PMS_P2;Temp;Humidity;BMP_temperature;BMP_pressure;BME280_temperature;BME280_humidity;BME280_pressure;Samples;Min_cycle;Max_cycle;Signal;HPM_P1;HPM_P2
2024/01/28 00:00:36;;;;;;;;;18.33;17.67;;;;;-146.37;100.00;59337.28;4825311;29;46215;-82
2024/01/28 00:03:02;;;;;;;;;12.67;12.67;;;;;-146.37;100.00;59337.28;4824489;29;45381;-82
2024/01/28 00:05:27;;;;;;;;;21.00;16.33;;;;;-146.37;100.00;59337.28;4825207;29;45573;-82
2024/01/28 00:07:52;;;;;;;;;18.33;14.33;;;;;-146.37;100.00;59337.28;4823813;29;45445;-82
2024/01/28 00:10:18;;;;;;;;;16.67;16.00;;;;;-146.37;100.00;59337.28;4824515;29;47165;-82
2024/01/28 00:12:43;;;;;;;;;17.00;14.00;;;;;-146.37;100.00;59337.28;4825034;29;45405;-82
2024/01/28 00:15:10;;;;;;;;;12.33;12.33;;;;;-146.37;100.00;59337.28;4825700;29;44845;-82
2024/01/28 00:17:36;;;;;;;;;16.67;15.00;;;;;-146.37;100.00;59337.28;4825529;29;45540;-82
2024/01/28 00:20:05;;;;;;;;;14.67;14.67;;;;;-146.37;100.00;59337.28;4825490;29;45429;-82
2024/01/28 00:22:31;;;;;;;;;14.67;14.67;;;;;-146.37;100.00;59337.28;4828191;29;45445;-81
2024/01/28 00:24:56;;;;;;;;;16.67;16.00;;;;;-146.37;100.00;59337.28;4827922;29;45320;-82
2024/01/28 00:27:22;;;;;;;;;15.00;14.00;;;;;-146.37;100.00;59337.28;4826692;29;45280;-82
2024/01/28 00:29:47;;;;;;;;;11.00;10.67;;;;;-146.37;100.00;59337.28;4823511;29;47132;-83
2024/01/28 00:32:13;;;;;;;;;13.33;13.33;;;;;-146.37;100.00;59337.28;4827867;29;45649;-82
2024/01/28 00:34:38;;;;;;;;;16.33;16.33;;;;;-146.37;100.00;59337.28;4825753;29;45348;-81
2024/01/28 00:37:03;;;;;;;;;17.00;13.67;;;;;-146.37;100.00;59337.28;4826203;29;45290;-82
2024/01/28 00:39:29;;;;;;;;;14.00;14.00;;;;;-146.37;100.00;59337.28;4826636;29;47474;-82
2024/01/28 00:41:55;;;;;;;;;17.33;13.33;;;;;-146.37;100.00;59337.28;4827116;29;45549;-82
2024/01/28 00:44:21;;;;;;;;;14.50;11.50;;;;;-146.37;100.00;59337.28;4827291;29;45578;-82
2024/01/28 00:46:46;;;;;;;;;16.67;14.67;;;;;-146.37;100.00;59337.28;4824775;29;45852;-82
2024/01/28 00:49:12;;;;;;;;;19.33;16.33;;;;;-146.37;100.00;59337.28;4826578;29;45578;-82
2024/01/28 00:51:37;;;;;;;;;16.33;14.67;;;;;-146.37;100.00;59337.28;4823955;29;45448;-81
2024/01/28 00:54:04;;;;;;;;;15.33;15.00;;;;;-146.37;100.00;59337.28;4825451;29;45453;-82
2024/01/28 00:56:29;;;;;;;;;16.67;11.33;;;;;-146.37;100.00;59337.28;4826766;29;45452;-81
2024/01/28 00:58:55;;;;;;;;;23.67;19.67;;;;;-146.37;100.00;59337.28;4839572;29;47524;-82
2024/01/28 01:01:20;;;;;;;;;18.00;15.33;;;;;-146.37;100.00;59337.28;4824435;29;45511;-81
2024/01/28 01:03:47;;;;;;;;;14.67;14.00;;;;;-146.37;100.00;59337.28;4824118;29;45338;-81
2024/01/28 01:06:12;;;;;;;;;14.67;14.67;;;;;-146.37;100.00;59337.28;4823975;29;45588;-81
2024/01/28 01:08:37;;;;;;;;;13.67;13.33;;;;;-146.37;100.00;59337.28;4824899;29;46191;-82
2024/01/28 01:11:05;;;;;;;;;23.67;17.33;;;;;-146.37;100.00;59337.28;4824121;29;45852;-81
2024/01/28 01:13:32;;;;;;;;;15.00;14.67;;;;;-146.37;100.00;59337.28;4824611;29;45452;-82
2024/01/28 01:15:57;;;;;;;;;15.67;15.00;;;;;-146.37;100.00;59337.28;4826015;29;45833;-81
2024/01/28 01:18:23;;;;;;;;;16.33;15.00;;;;;-146.37;100.00;59337.28;4825240;29;48038;-83
2024/01/28 01:20:49;;;;;;;;;16.00;13.33;;;;;-146.37;100.00;59337.28;4826655;29;45490;-82
2024/01/28 01:23:15;;;;;;;;;26.67;22.00;;;;;-146.37;100.00;59337.28;4826818;29;45493;-81
2024/01/28 01:25:40;;;;;;;;;22.33;19.33;;;;;-146.37;100.00;59337.28;4825307;29;45408;-82
2024/01/28 01:28:05;;;;;;;;;29.67;23.00;;;;;-146.37;100.00;59337.28;4824150;29;46929;-81
2024/01/28 01:30:31;;;;;;;;;32.33;28.00;;;;;-146.37;100.00;59337.28;4823941;29;45430;-82
2024/01/28 01:32:57;;;;;;;;;26.67;22.67;;;;;-146.37;100.00;59337.28;4823933;29;45658;-81
2024/01/28 01:35:28;;;;;;;;;22.67;22.67;;;;;-146.37;100.00;59337.28;4824261;29;45391;-81
2024/01/28 01:37:54;;;;;;;;;28.00;26.33;;;;;-146.37;100.00;59337.28;4823984;29;47236;-81
2024/01/28 01:40:20;;;;;;;;;24.67;20.33;;;;;-146.37;100.00;59337.28;4823664;29;45580;-82
2024/01/28 01:42:46;;;;;;;;;24.67;23.33;;;;;-146.37;100.00;59337.28;4823888;29;45395;-82
2024/01/28 01:45:12;;;;;;;;;22.00;17.00;;;;;-146.37;100.00;59337.28;4825602;29;45403;-81
2024/01/28 01:47:37;;;;;;;;;21.00;20.00;;;;;-146.37;100.00;59337.28;4823685;29;48110;-83
2024/01/28 01:50:04;;;;;;;;;18.67;17.00;;;;;-146.37;100.00;59337.28;4825791;29;45387;-82
2024/01/28 01:52:30;;;;;;;;;20.33;17.00;;;;;-146.37;100.00;59337.28;4824619;29;45398;-82
2024/01/28 01:54:56;;;;;;;;;22.00;18.67;;;;;-146.37;100.00;59337.28;4824895;29;45477;-82
2024/01/28 01:57:24;;;;;;;;;22.67;22.67;;;;;-146.37;100.00;59337.28;4825625;29;45623;-82
2024/01/28 01:59:49;;;;;;;;;18.33;14.00;;;;;-146.37;100.00;59337.28;4823692;29;45498;-83
2024/01/28 02:02:16;;;;;;;;;22.00;19.00;;;;;-146.37;100.00;59337.28;4837750;29;45473;-82
2024/01/28 02:04:43;;;;;;;;;21.00;19.00;;;;;-146.37;100.00;59337.28;4824404;29;45374;-82
2024/01/28 02:07:09;;;;;;;;;16.67;15.67;;;;;-146.37;100.00;59337.28;4823747;29;48349;-82
2024/01/28 02:09:34;;;;;;;;;19.67;14.00;;;;;-146.37;100.00;59337.28;4823811;29;45802;-82
2024/01/28 02:12:02;;;;;;;;;20.00;17.00;;;;;-146.37;100.00;59337.28;4824945;29;45513;-81
2024/01/28 02:14:28;;;;;;;;;17.00;14.33;;;;;-146.37;100.00;59337.28;4826115;29;45611;-82
2024/01/28 02:17:01;;;;;;;;;19.33;15.33;;;;;-146.37;100.00;59337.28;4826315;29;46032;-82
2024/01/28 02:19:27;;;;;;;;;11.67;11.67;;;;;-146.37;100.00;59337.28;4823653;29;45450;-82
2024/01/28 02:21:52;;;;;;;;;14.67;14.67;;;;;-146.37;100.00;59337.28;4825398;29;45411;-81
2024/01/28 02:24:18;;;;;;;;;18.00;13.67;;;;;-146.37;100.00;59337.28;4824080;29;45617;-81
2024/01/28 02:26:43;;;;;;;;;16.33;13.67;;;;;-146.37;100.00;59337.28;4824496;29;47363;-82
2024/01/28 02:29:08;;;;;;;;;13.67;13.67;;;;;-146.37;100.00;59337.28;4826298;29;45535;-82
2024/01/28 02:31:34;;;;;;;;;16.67;13.67;;;;;-146.37;100.00;59337.28;4826553;29;45461;-82
2024/01/28 02:34:00;;;;;;;;;13.00;12.67;;;;;-146.37;100.00;59337.28;4824406;29;45521;-81
2024/01/28 02:36:27;;;;;;;;;18.00;16.00;;;;;-146.37;100.00;59337.28;4823015;29;48031;-81
2024/01/28 02:38:54;;;;;;;;;18.00;14.00;;;;;-146.37;100.00;59337.28;4823124;29;45366;-82
2024/01/28 02:41:26;;;;;;;;;12.00;10.33;;;;;-146.37;100.00;59337.28;4825633;29;45438;-81
2024/01/28 02:43:54;;;;;;;;;13.00;13.00;;;;;-146.37;100.00;59337.28;4825450;29;45595;-82
2024/01/28 02:46:19;;;;;;;;;14.67;12.67;;;;;-146.37;100.00;59337.28;4840300;29;46226;-83
2024/01/28 02:48:44;;;;;;;;;14.00;11.67;;;;;-146.37;100.00;59337.28;4824774;29;44812;-82
2024/01/28 02:51:10;;;;;;;;;15.00;15.00;;;;;-146.37;100.00;59337.28;4824088;29;45430;-81
2024/01/28 02:53:36;;;;;;;;;12.33;10.67;;;;;-146.37;100.00;59337.28;4826396;29;45547;-81
2024/01/28 02:56:01;;;;;;;;;14.67;13.00;;;;;-146.37;100.00;59337.28;4831088;29;46067;-82
2024/01/28 02:58:27;;;;;;;;;10.00;9.33;;;;;-146.37;100.00;59337.28;4829026;29;45637;-81
2024/01/28 03:00:52;;;;;;;;;17.00;14.33;;;;;-146.37;100.00;59337.28;4829800;29;45413;-81
2024/01/28 03:03:18;;;;;;;;;14.00;12.33;;;;;-146.37;100.00;59337.28;4829778;29;45477;-82
2024/01/28 03:05:44;;;;;;;;;13.00;12.00;;;;;-146.37;100.00;59337.28;4828837;29;45534;-81
2024/01/28 03:08:10;;;;;;;;;16.67;14.00;;;;;-146.37;100.00;59337.28;4845011;29;45620;-82
2024/01/28 03:10:35;;;;;;;;;14.00;14.00;;;;;-146.37;100.00;59337.28;4845670;29;45397;-82
2024/01/28 03:13:01;;;;;;;;;12.67;10.67;;;;;-146.37;100.00;59337.28;4828141;29;45366;-81
2024/01/28 03:15:26;;;;;;;;;9.00;9.00;;;;;-146.37;100.00;59337.28;4827980;29;46066;-82
2024/01/28 03:17:51;;;;;;;;;14.00;14.00;;;;;-146.37;100.00;59337.28;4845724;29;45390;-81
2024/01/28 03:20:18;;;;;;;;;16.67;13.33;;;;;-146.37;100.00;59337.28;4829191;29;45778;-82
2024/01/28 03:22:43;;;;;;;;;16.67;11.67;;;;;-146.37;100.00;59337.28;4829027;29;45520;-82
2024/01/28 03:25:09;;;;;;;;;15.67;12.67;;;;;-146.37;100.00;59337.28;4828910;29;48315;-82
2024/01/28 03:27:35;;;;;;;;;11.00;11.00;;;;;-146.37;100.00;59337.28;4847314;29;45367;-82
2024/01/28 03:30:01;;;;;;;;;13.00;11.00;;;;;-146.37;100.00;59337.28;4830057;29;45454;-82
2024/01/28 03:32:26;;;;;;;;;14.00;14.00;;;;;-146.37;100.00;59337.28;4828733;29;45423;-82
2024/01/28 03:34:52;;;;;;;;;15.33;13.00;;;;;-146.37;100.00;59337.28;4845840;29;45903;-82
2024/01/28 03:37:17;;;;;;;;;13.67;10.00;;;;;-146.37;100.00;59337.28;4828669;29;45494;-81
2024/01/28 03:39:42;;;;;;;;;11.00;11.00;;;;;-146.37;100.00;59337.28;4830037;29;45478;-82
2024/01/28 03:42:10;;;;;;;;;13.00;13.00;;;;;-146.37;100.00;59337.28;4831316;29;45655;-82
2024/01/28 03:44:35;;;;;;;;;15.33;13.33;;;;;-146.37;100.00;59337.28;4846904;29;46212;-82
2024/01/28 03:47:01;;;;;;;;;6.33;5.00;;;;;-146.37;100.00;59337.28;4844805;29;45405;-82
2024/01/28 03:49:27;;;;;;;;;12.00;12.00;;;;;-146.37;100.00;59337.28;4846768;29;45667;-82
2024/01/28 03:51:53;;;;;;;;;13.33;12.00;;;;;-146.37;100.00;59337.28;4830544;29;44910;-82
2024/01/28 03:54:18;;;;;;;;;13.00;12.00;;;;;-146.37;100.00;59337.28;4845631;29;45280;-82
2024/01/28 03:56:43;;;;;;;;;15.67;11.67;;;;;-146.37;100.00;59337.28;4829937;29;45449;-82
2024/01/28 03:59:09;;;;;;;;;10.00;10.00;;;;;-146.37;100.00;59337.28;4830842;29;44980;-82
2024/01/28 04:01:35;;;;;;;;;9.33;9.33;;;;;-146.37;100.00;59337.28;4847220;29;45737;-82
2024/01/28 04:04:01;;;;;;;;;14.00;13.67;;;;;-146.37;100.00;59337.28;4828315;29;47016;-82
2024/01/28 04:06:26;;;;;;;;;15.33;15.33;;;;;-146.37;100.00;59337.28;4845633;29;45444;-82
2024/01/28 04:08:55;;;;;;;;;19.33;12.67;;;;;-146.37;100.00;59337.28;4848227;29;45480;-82
2024/01/28 04:11:27;;;;;;;;;13.00;10.67;;;;;-146.37;100.00;59337.28;4831437;29;44849;-82
2024/01/28 04:13:56;;;;;;;;;15.33;13.33;;;;;-146.37;100.00;59337.28;4829572;29;47289;-82
2024/01/28 04:16:22;;;;;;;;;17.33;14.33;;;;;-146.37;100.00;59337.28;4847075;29;45322;-81
2024/01/28 04:18:47;;;;;;;;;13.00;12.33;;;;;-146.37;100.00;59337.28;4847803;29;45322;-82
2024/01/28 04:21:13;;;;;;;;;10.00;10.00;;;;;-146.37;100.00;59337.28;4831812;29;45584;-82
2024/01/28 04:23:39;;;;;;;;;13.00;13.00;;;;;-146.37;100.00;59337.28;4845469;29;45428;-82
2024/01/28 04:26:05;;;;;;;;;8.33;8.33;;;;;-146.37;100.00;59337.28;4847744;29;45469;-82
2024/01/28 04:28:30;;;;;;;;;12.00;9.00;;;;;-146.37;100.00;59337.28;4847313;29;45539;-82
2024/01/28 04:30:58;;;;;;;;;8.00;8.00;;;;;-146.37;100.00;59337.28;4828814;29;45387;-82
2024/01/28 04:33:24;;;;;;;;;12.00;9.33;;;;;-146.37;100.00;59337.28;4845746;29;45469;-82
2024/01/28 04:35:49;;;;;;;;;12.67;12.00;;;;;-146.37;100.00;59337.28;4846200;29;45446;-82
2024/01/28 04:38:15;;;;;;;;;9.67;9.67;;;;;-146.37;100.00;59337.28;4845599;29;45745;-81
2024/01/28 04:40:40;;;;;;;;;20.00;14.33;;;;;-146.37;100.00;59337.28;4829638;29;45416;-82
2024/01/28 04:43:06;;;;;;;;;17.00;12.67;;;;;-146.37;100.00;59337.28;4846416;29;45373;-81
2024/01/28 04:45:31;;;;;;;;;12.33;10.00;;;;;-146.37;100.00;59337.28;4830172;29;45312;-81
2024/01/28 04:47:57;;;;;;;;;12.67;10.33;;;;;-146.37;100.00;59337.28;4830113;29;45351;-82
2024/01/28 04:50:24;;;;;;;;;20.33;15.00;;;;;-146.37;100.00;59337.28;4830031;29;45348;-81
2024/01/28 04:52:50;;;;;;;;;19.00;16.00;;;;;-146.37;100.00;59337.28;4828238;29;48635;-81
2024/01/28 04:55:15;;;;;;;;;15.33;15.33;;;;;-146.37;100.00;59337.28;4844440;29;45387;-82
2024/01/28 04:57:40;;;;;;;;;12.67;12.00;;;;;-146.37;100.00;59337.28;4826068;29;45679;-82
2024/01/28 05:00:10;;;;;;;;;15.00;10.00;;;;;-146.37;100.00;59337.28;4844942;29;45961;-81
2024/01/28 05:02:35;;;;;;;;;16.00;16.00;;;;;-146.37;100.00;59337.28;4826578;29;47165;-82
2024/01/28 05:05:01;;;;;;;;;12.67;12.67;;;;;-146.37;100.00;59337.28;4827360;29;45320;-82
2024/01/28 05:07:26;;;;;;;;;13.00;13.00;;;;;-146.37;100.00;59337.28;4824492;29;45776;-81
2024/01/28 05:09:52;;;;;;;;;17.00;14.67;;;;;-146.37;100.00;59337.28;4823843;29;45387;-81
2024/01/28 05:12:17;;;;;;;;;15.67;15.67;;;;;-146.37;100.00;59337.28;4827520;29;45831;-81
2024/01/28 05:14:43;;;;;;;;;13.67;13.67;;;;;-146.37;100.00;59337.28;4826178;29;45403;-81
2024/01/28 05:17:08;;;;;;;;;12.67;12.33;;;;;-146.37;100.00;59337.28;4824880;29;55454;-81
2024/01/28 05:19:33;;;;;;;;;10.67;9.67;;;;;-146.37;100.00;59337.28;4826546;29;45363;-81
2024/01/28 05:21:59;;;;;;;;;10.00;10.00;;;;;-146.37;100.00;59337.28;4824821;29;47598;-81
2024/01/28 05:24:24;;;;;;;;;17.00;16.00;;;;;-146.37;100.00;59337.28;4827316;29;45324;-81
2024/01/28 05:26:49;;;;;;;;;14.33;14.00;;;;;-146.37;100.00;59337.28;4826693;29;49100;-81
2024/01/28 05:32:37;;;;;;;;;12.00;12.00;;;;;-146.37;100.00;59337.28;4826896;29;45353;-82
2024/01/28 05:35:04;;;;;;;;;12.67;12.33;;;;;-146.37;100.00;59337.28;4823414;29;45404;-82
2024/01/28 05:37:37;;;;;;;;;14.00;14.00;;;;;-146.37;100.00;59337.28;4825209;29;45480;-81
2024/01/28 05:40:04;;;;;;;;;10.67;9.33;;;;;-146.37;100.00;59337.28;4824695;29;45629;-81
2024/01/28 05:42:29;;;;;;;;;16.00;12.33;;;;;-146.37;100.00;59337.28;4824612;29;47249;-81
2024/01/28 05:45:44;;;;;;;;;17.00;13.00;;;;;-146.37;100.00;59337.28;4822482;29;45783;-82
2024/01/28 05:48:10;;;;;;;;;15.00;13.00;;;;;-146.37;100.00;59337.28;4825938;29;45451;-82
2024/01/28 05:50:35;;;;;;;;;15.33;15.00;;;;;-146.37;100.00;59337.28;4824003;29;45943;-81
2024/01/28 05:53:01;;;;;;;;;15.00;13.33;;;;;-146.37;100.00;59337.28;4823578;29;47769;-82
2024/01/28 05:55:28;;;;;;;;;18.33;14.33;;;;;-146.37;100.00;59337.28;4824628;29;45432;-81
2024/01/28 05:57:54;;;;;;;;;13.33;13.33;;;;;-146.37;100.00;59337.28;4824198;29;45503;-82
2024/01/28 06:00:19;;;;;;;;;16.67;16.33;;;;;-146.37;100.00;59337.28;4826043;29;45421;-81
2024/01/28 06:02:45;;;;;;;;;14.00;14.00;;;;;-146.37;100.00;59337.28;4825174;29;46714;-82
2024/01/28 06:05:12;;;;;;;;;24.67;17.00;;;;;-146.37;100.00;59337.28;4825643;29;45481;-81
2024/01/28 06:07:38;;;;;;;;;15.33;15.33;;;;;-146.37;100.00;59337.28;4835974;29;44838;-82
2024/01/28 06:10:04;;;;;;;;;9.33;9.33;;;;;-146.37;100.00;59337.28;4828717;29;45415;-81
2024/01/28 06:12:29;;;;;;;;;15.33;12.33;;;;;-146.37;100.00;59337.28;4845018;29;45130;-82
2024/01/28 06:14:57;;;;;;;;;16.33;16.00;;;;;-146.37;100.00;59337.28;4844219;29;45359;-82
2024/01/28 06:17:22;;;;;;;;;16.67;16.67;;;;;-146.37;100.00;59337.28;4828235;29;45453;-82
2024/01/28 06:19:48;;;;;;;;;16.33;14.00;;;;;-146.37;100.00;59337.28;4829452;29;45309;-82
2024/01/28 06:22:15;;;;;;;;;15.67;13.00;;;;;-146.37;100.00;59337.28;4827670;29;48240;-82
2024/01/28 06:24:42;;;;;;;;;14.67;12.67;;;;;-146.37;100.00;59337.28;4827222;29;45828;-82
2024/01/28 06:27:07;;;;;;;;;18.33;18.33;;;;;-146.37;100.00;59337.28;4824230;29;45423;-82
2024/01/28 06:29:32;;;;;;;;;16.00;12.33;;;;;-146.37;100.00;59337.28;4827402;29;45431;-82
2024/01/28 06:31:58;;;;;;;;;12.00;11.33;;;;;-146.37;100.00;59337.28;4845197;29;45391;-82
2024/01/28 06:34:23;;;;;;;;;17.33;16.33;;;;;-146.37;100.00;59337.28;4845488;29;45282;-82
2024/01/28 06:36:50;;;;;;;;;14.67;13.67;;;;;-146.37;100.00;59337.28;4846984;29;45413;-81
2024/01/28 06:39:15;;;;;;;;;21.00;20.00;;;;;-146.37;100.00;59337.28;4848983;29;45481;-81
2024/01/28 06:41:42;;;;;;;;;18.67;16.67;;;;;-146.37;100.00;59337.28;4832484;29;48130;-82
2024/01/28 06:44:07;;;;;;;;;13.33;12.67;;;;;-146.37;100.00;59337.28;4832095;29;45389;-82
2024/01/28 06:46:34;;;;;;;;;13.33;12.00;;;;;-146.37;100.00;59337.28;4848478;29;45655;-82
2024/01/28 06:48:59;;;;;;;;;14.00;14.00;;;;;-146.37;100.00;59337.28;4848009;29;45456;-81
2024/01/28 06:51:24;;;;;;;;;23.00;16.67;;;;;-146.37;100.00;59337.28;4831214;29;48348;-81
2024/01/28 06:53:52;;;;;;;;;19.33;16.33;;;;;-146.37;100.00;59337.28;4831072;29;45892;-81
2024/01/28 06:56:17;;;;;;;;;15.67;14.67;;;;;-146.37;100.00;59337.28;4847261;29;45440;-81
2024/01/28 06:58:43;;;;;;;;;17.00;15.33;;;;;-146.37;100.00;59337.28;4846240;29;45370;-81
2024/01/28 07:01:11;;;;;;;;;12.00;10.33;;;;;-146.37;100.00;59337.28;4846525;29;45409;-82
2024/01/28 07:03:37;;;;;;;;;17.00;15.67;;;;;-146.37;100.00;59337.28;4829563;29;45478;-82
2024/01/28 07:06:03;;;;;;;;;15.67;15.67;;;;;-146.37;100.00;59337.28;4826962;29;45532;-82
2024/01/28 07:08:28;;;;;;;;;20.33;14.67;;;;;-146.37;100.00;59337.28;4826278;29;45478;-82
2024/01/28 07:10:53;;;;;;;;;22.00;17.33;;;;;-146.37;100.00;59337.28;4828045;29;46162;-81
2024/01/28 07:13:19;;;;;;;;;19.00;16.00;;;;;-146.37;100.00;59337.28;4826403;29;45505;-82
2024/01/28 07:15:44;;;;;;;;;20.00;17.00;;;;;-146.37;100.00;59337.28;4826180;29;45418;-81
2024/01/28 07:18:09;;;;;;;;;12.67;12.67;;;;;-146.37;100.00;59337.28;4826580;29;45577;-81
2024/01/28 07:20:35;;;;;;;;;18.67;16.00;;;;;-146.37;100.00;59337.28;4825644;29;50002;-82
2024/01/28 07:23:00;;;;;;;;;13.33;13.33;;;;;-146.37;100.00;59337.28;4827996;29;45389;-81
2024/01/28 07:25:26;;;;;;;;;19.67;15.67;;;;;-146.37;100.00;59337.28;4826316;29;45867;-81
2024/01/28 07:27:52;;;;;;;;;17.33;15.67;;;;;-146.37;100.00;59337.28;4827481;29;45437;-81
2024/01/28 07:30:17;;;;;;;;;17.33;16.33;;;;;-146.37;100.00;59337.28;4825767;29;47217;-82
2024/01/28 07:32:43;;;;;;;;;14.00;13.67;;;;;-146.37;100.00;59337.28;4825781;29;45467;-82
2024/01/28 07:35:15;;;;;;;;;16.00;14.33;;;;;-146.37;100.00;59337.28;4825498;29;45887;-82
2024/01/28 07:37:41;;;;;;;;;17.67;16.67;;;;;-146.37;100.00;59337.28;4825901;29;45618;-82
2024/01/28 07:40:07;;;;;;;;;16.67;13.00;;;;;-146.37;100.00;59337.28;4822834;29;47335;-81
2024/01/28 07:42:32;;;;;;;;;18.67;16.33;;;;;-146.37;100.00;59337.28;4826795;29;45639;-81
2024/01/28 07:44:58;;;;;;;;;15.33;15.33;;;;;-146.37;100.00;59337.28;4825582;29;45369;-81
2024/01/28 07:47:23;;;;;;;;;20.00;18.00;;;;;-146.37;100.00;59337.28;4826613;29;45891;-82
2024/01/28 07:49:49;;;;;;;;;17.33;15.00;;;;;-146.37;100.00;59337.28;4826737;29;45481;-82
2024/01/28 07:52:14;;;;;;;;;20.33;19.00;;;;;-146.37;100.00;59337.28;4824666;29;45407;-82
2024/01/28 07:54:40;;;;;;;;;16.33;16.33;;;;;-146.37;100.00;59337.28;4823817;29;45640;-82
2024/01/28 07:57:05;;;;;;;;;18.00;16.33;;;;;-146.37;100.00;59337.28;4824239;29;45447;-82
2024/01/28 07:59:30;;;;;;;;;20.00;16.33;;;;;-146.37;100.00;59337.28;4821894;29;48095;-82
2024/01/28 08:01:56;;;;;;;;;25.33;20.00;;;;;-146.37;100.00;59337.28;4824250;29;45763;-82
2024/01/28 08:04:22;;;;;;;;;16.67;16.67;;;;;-146.37;100.00;59337.28;4823916;29;45569;-82
2024/01/28 08:06:47;;;;;;;;;19.00;19.00;;;;;-146.37;100.00;59337.28;4825956;29;45383;-82
2024/01/28 08:09:19;;;;;;;;;19.33;19.33;;;;;-146.37;100.00;59337.28;4825096;29;48201;-82
2024/01/28 08:11:44;;;;;;;;;20.00;20.00;;;;;-146.37;100.00;59337.28;4825149;29;45472;-82
2024/01/28 08:14:09;;;;;;;;;9.33;9.33;;;;;-146.37;100.00;59337.28;4825163;29;45849;-81
2024/01/28 08:16:35;;;;;;;;;19.00;19.00;;;;;-146.37;100.00;59337.28;4825601;29;44877;-82
2024/01/28 08:19:04;;;;;;;;;21.00;17.33;;;;;-146.37;100.00;59337.28;4824790;29;47644;-82
2024/01/28 08:21:29;;;;;;;;;20.67;18.33;;;;;-146.37;100.00;59337.28;4824670;29;45544;-81
2024/01/28 08:23:55;;;;;;;;;23.00;21.67;;;;;-146.37;100.00;59337.28;4841640;29;45934;-82
2024/01/28 08:26:20;;;;;;;;;21.67;20.33;;;;;-146.37;100.00;59337.28;4824798;29;45499;-81
2024/01/28 08:28:45;;;;;;;;;22.67;20.00;;;;;-146.37;100.00;59337.28;4842256;29;45895;-81
2024/01/28 08:31:11;;;;;;;;;18.67;16.33;;;;;-146.37;100.00;59337.28;4841620;29;45569;-81
2024/01/28 08:33:37;;;;;;;;;21.00;17.67;;;;;-146.37;100.00;59337.28;4842094;29;45325;-81
2024/01/28 08:36:03;;;;;;;;;20.00;18.00;;;;;-146.37;100.00;59337.28;4824711;29;45365;-82
2024/01/28 08:38:30;;;;;;;;;18.00;18.00;;;;;-146.37;100.00;59337.28;4842112;29;45561;-82
2024/01/28 08:40:56;;;;;;;;;22.33;20.33;;;;;-146.37;100.00;59337.28;4842123;29;45377;-81
2024/01/28 08:43:21;;;;;;;;;20.33;17.33;;;;;-146.37;100.00;59337.28;4824627;29;45658;-81
2024/01/28 08:45:46;;;;;;;;;17.33;17.33;;;;;-146.37;100.00;59337.28;4825467;29;45705;-82
2024/01/28 08:48:12;;;;;;;;;22.33;20.00;;;;;-146.37;100.00;59337.28;4841482;29;45445;-81
2024/01/28 08:50:40;;;;;;;;;22.00;20.33;;;;;-146.37;100.00;59337.28;4823890;29;45431;-82
2024/01/28 08:53:05;;;;;;;;;19.33;17.00;;;;;-146.37;100.00;59337.28;4840918;29;45778;-81
2024/01/28 08:55:31;;;;;;;;;21.00;19.67;;;;;-146.37;100.00;59337.28;4825239;29;45390;-82
2024/01/28 08:57:56;;;;;;;;;22.00;20.67;;;;;-146.37;100.00;59337.28;4825002;29;46683;-81
2024/01/28 09:00:21;;;;;;;;;20.33;19.00;;;;;-146.37;100.00;59337.28;4841647;29;45412;-82
2024/01/28 09:02:47;;;;;;;;;22.33;18.67;;;;;-146.37;100.00;59337.28;4841626;29;45811;-81
2024/01/28 09:05:12;;;;;;;;;18.00;16.67;;;;;-146.37;100.00;59337.28;4844001;29;45400;-81
2024/01/28 09:07:41;;;;;;;;;21.67;20.33;;;;;-146.37;100.00;59337.28;4838336;29;48255;-82
2024/01/28 09:10:07;;;;;;;;;18.67;18.67;;;;;-146.37;100.00;59337.28;4826078;29;46033;-81
2024/01/28 09:12:33;;;;;;;;;19.67;19.67;;;;;-146.37;100.00;59337.28;4824822;29;45758;-81
2024/01/28 09:14:58;;;;;;;;;24.67;23.33;;;;;-146.37;100.00;59337.28;4826171;29;45485;-81
2024/01/28 09:17:24;;;;;;;;;22.67;21.00;;;;;-146.37;100.00;59337.28;4824381;29;47634;-82
2024/01/28 09:19:49;;;;;;;;;26.33;22.33;;;;;-146.37;100.00;59337.28;4825244;29;45515;-81
2024/01/28 09:22:14;;;;;;;;;17.00;15.67;;;;;-146.37;100.00;59337.28;4823592;29;45630;-81
2024/01/28 09:24:40;;;;;;;;;21.67;21.00;;;;;-146.37;100.00;59337.28;4828546;29;45449;-81
2024/01/28 09:27:06;;;;;;;;;23.00;22.00;;;;;-146.37;100.00;59337.28;4826853;29;47608;-81
2024/01/28 09:29:31;;;;;;;;;24.33;21.67;;;;;-146.37;100.00;59337.28;4827880;29;45523;-81
2024/01/28 09:31:58;;;;;;;;;19.00;18.00;;;;;-146.37;100.00;59337.28;4826574;29;45596;-81
2024/01/28 09:34:24;;;;;;;;;26.67;21.67;;;;;-146.37;100.00;59337.28;4826450;29;45403;-82
2024/01/28 09:36:49;;;;;;;;;21.33;21.33;;;;;-146.37;100.00;59337.28;4826378;29;45689;-82
2024/01/28 09:39:15;;;;;;;;;21.33;21.33;;;;;-146.37;100.00;59337.28;4824703;29;45437;-82
2024/01/28 09:41:46;;;;;;;;;26.33;24.33;;;;;-146.37;100.00;59337.28;4824617;29;45413;-82
2024/01/28 09:44:12;;;;;;;;;19.67;18.67;;;;;-146.37;100.00;59337.28;4822277;29;45358;-81
2024/01/28 09:46:37;;;;;;;;;26.67;21.33;;;;;-146.37;100.00;59337.28;4823835;29;45676;-82
2024/01/28 09:49:03;;;;;;;;;22.00;19.67;;;;;-146.37;100.00;59337.28;4823901;29;45417;-82
2024/01/28 09:51:28;;;;;;;;;21.00;18.00;;;;;-146.37;100.00;59337.28;4824419;29;45397;-82
2024/01/28 09:53:54;;;;;;;;;25.50;24.50;;;;;-146.37;100.00;59337.28;4824911;29;45469;-82
2024/01/28 09:56:22;;;;;;;;;22.33;21.67;;;;;-146.37;100.00;59337.28;4823940;29;46234;-83
2024/01/28 09:58:48;;;;;;;;;25.67;23.33;;;;;-146.37;100.00;59337.28;4822446;29;45542;-82
2024/01/28 10:01:14;;;;;;;;;21.00;20.33;;;;;-146.37;100.00;59337.28;4824056;29;45327;-82
2024/01/28 10:03:41;;;;;;;;;14.67;10.33;;;;;-146.37;100.00;59337.28;4829009;29;45469;-81
2024/01/28 10:06:07;;;;;;;;;26.67;25.67;;;;;-146.37;100.00;59337.28;4828828;29;45541;-82
2024/01/28 10:08:32;;;;;;;;;26.67;23.00;;;;;-146.37;100.00;59337.28;4826538;29;46664;-82
2024/01/28 10:11:00;;;;;;;;;29.67;25.67;;;;;-146.37;100.00;59337.28;4827071;29;45382;-82
2024/01/28 10:13:26;;;;;;;;;25.33;19.00;;;;;-146.37;100.00;59337.28;4827067;29;45662;-82
2024/01/28 10:15:56;;;;;;;;;17.67;17.67;;;;;-146.37;100.00;59337.28;4826891;29;48438;-82
2024/01/28 10:18:23;;;;;;;;;26.33;22.67;;;;;-146.37;100.00;59337.28;4827017;29;45412;-82
2024/01/28 10:20:49;;;;;;;;;28.33;27.00;;;;;-146.37;100.00;59337.28;4828982;29;45347;-82
2024/01/28 10:23:15;;;;;;;;;21.33;21.33;;;;;-146.37;100.00;59337.28;4828375;29;45696;-82
2024/01/28 10:25:40;;;;;;;;;22.67;16.67;;;;;-146.37;100.00;59337.28;4829322;29;45670;-82
2024/01/28 10:28:06;;;;;;;;;24.00;23.33;;;;;-146.37;100.00;59337.28;4829504;29;45446;-82
2024/01/28 10:30:33;;;;;;;;;28.00;25.33;;;;;-146.37;100.00;59337.28;4828536;29;45589;-83
2024/01/28 10:32:59;;;;;;;;;28.33;26.33;;;;;-146.37;100.00;59337.28;4826764;29;45631;-82
2024/01/28 10:35:25;;;;;;;;;34.67;27.00;;;;;-146.37;100.00;59337.28;4829391;29;45559;-81
2024/01/28 10:37:56;;;;;;;;;31.00;25.00;;;;;-146.37;100.00;59337.28;4826974;29;45433;-82
2024/01/28 10:40:30;;;;;;;;;27.33;25.67;;;;;-146.37;100.00;59337.28;4829546;29;45583;-82
2024/01/28 10:43:00;;;;;;;;;22.00;19.00;;;;;-146.37;100.00;59337.28;4827311;29;45337;-82
2024/01/28 10:45:27;;;;;;;;;27.00;27.00;;;;;-146.37;100.00;59337.28;4828493;29;45517;-82
2024/01/28 10:47:56;;;;;;;;;27.00;23.67;;;;;-146.37;100.00;59337.28;4827850;29;45371;-82
2024/01/28 10:50:28;;;;;;;;;28.33;24.67;;;;;-146.37;100.00;59337.28;4827509;29;45413;-82
2024/01/28 10:52:56;;;;;;;;;26.67;25.67;;;;;-146.37;100.00;59337.28;4826134;29;45364;-82